sensor_id;sensor_type;location;lat;lon;timestamp;pressure;altitude;pressure_sealevel;temperature;humidity
24234;BME280;12365;43.554;1.388;2022-11-27T00:01:13;100761.53;;;7.24;63.39
24234;BME280;12365;43.554;1.388;2022-11-27T00:03:39;100754.16;;;7.19;63.59
24234;BME280;12365;43.554;1.388;2022-11-27T00:06:05;100752.22;;;7.16;63.22
24234;BME280;12365;43.554;1.388;2022-11-27T00:08:31;100751.19;;;7.14;63.75
24234;BME280;12365;43.554;1.388;2022-11-27T00:10:56;100748.16;;;7.08;63.00
24234;BME280;12365;43.554;1.388;2022-11-27T00:13:22;100749.47;;;7.03;63.30
24234;BME280;12365;43.554;1.388;2022-11-27T00:15:47;100760.97;;;6.94;63.55
24234;BME280;12365;43.554;1.388;2022-11-27T00:18:13;100764.09;;;6.90;63.68
24234;BME280;12365;43.554;1.388;2022-11-27T00:20:38;100760.47;;;6.88;63.60
24234;BME280;12365;43.554;1.388;2022-11-27T00:23:04;100760.47;;;6.88;63.69
24234;BME280;12365;43.554;1.388;2022-11-27T00:25:30;100751.69;;;6.86;63.62
24234;BME280;12365;43.554;1.388;2022-11-27T00:27:55;100756.59;;;6.83;63.49
24234;BME280;12365;43.554;1.388;2022-11-27T00:30:21;100760.78;;;6.81;63.74
24234;BME280;12365;43.554;1.388;2022-11-27T00:32:46;100758.44;;;6.84;63.70
24234;BME280;12365;43.554;1.388;2022-11-27T00:35:11;100753.13;;;6.83;63.26
24234;BME280;12365;43.554;1.388;2022-11-27T00:37:37;100749.63;;;6.82;63.08
24234;BME280;12365;43.554;1.388;2022-11-27T00:40:02;100748.50;;;6.79;63.35
24234;BME280;12365;43.554;1.388;2022-11-27T00:42:28;100739.78;;;6.78;63.51
24234;BME280;12365;43.554;1.388;2022-11-27T00:44:53;100737.31;;;6.80;63.59
24234;BME280;12365;43.554;1.388;2022-11-27T00:47:19;100733.03;;;6.80;63.13
24234;BME280;12365;43.554;1.388;2022-11-27T00:49:44;100743.41;;;6.80;63.26
24234;BME280;12365;43.554;1.388;2022-11-27T00:52:11;100744.06;;;6.78;63.59
24234;BME280;12365;43.554;1.388;2022-11-27T00:54:36;100740.59;;;6.77;63.41
24234;BME280;12365;43.554;1.388;2022-11-27T00:57:02;100744.97;;;6.78;63.72
24234;BME280;12365;43.554;1.388;2022-11-27T00:59:27;100744.06;;;6.78;63.35
24234;BME280;12365;43.554;1.388;2022-11-27T01:01:53;100744.63;;;6.73;63.44
24234;BME280;12365;43.554;1.388;2022-11-27T01:04:18;100740.13;;;6.71;63.44
24234;BME280;12365;43.554;1.388;2022-11-27T01:06:43;100738.81;;;6.66;63.24
24234;BME280;12365;43.554;1.388;2022-11-27T01:09:13;100738.81;;;6.66;63.39
24234;BME280;12365;43.554;1.388;2022-11-27T01:11:39;100729.25;;;6.65;63.32
24234;BME280;12365;43.554;1.388;2022-11-27T01:14:11;100729.91;;;6.62;63.26
24234;BME280;12365;43.554;1.388;2022-11-27T01:16:37;100737.53;;;6.61;63.18
24234;BME280;12365;43.554;1.388;2022-11-27T01:19:03;100748.25;;;6.54;63.53
24234;BME280;12365;43.554;1.388;2022-11-27T01:21:30;100753.56;;;6.45;63.10
24234;BME280;12365;43.554;1.388;2022-11-27T01:23:56;100748.03;;;6.40;63.38
24234;BME280;12365;43.554;1.388;2022-11-27T01:26:22;100748.03;;;6.40;63.11
24234;BME280;12365;43.554;1.388;2022-11-27T01:28:51;100746.22;;;6.39;63.51
24234;BME280;12365;43.554;1.388;2022-11-27T01:31:20;100747.13;;;6.40;63.30
24234;BME280;12365;43.554;1.388;2022-11-27T01:33:46;100742.59;;;6.37;63.35
24234;BME280;12365;43.554;1.388;2022-11-27T01:36:13;100743.16;;;6.33;63.16
24234;BME280;12365;43.554;1.388;2022-11-27T01:38:40;100734.34;;;6.31;63.27
24234;BME280;12365;43.554;1.388;2022-11-27T01:41:17;100744.34;;;6.26;63.28
24234;BME280;12365;43.554;1.388;2022-11-27T01:43:55;100734.88;;;6.27;63.21
24234;BME280;12365;43.554;1.388;2022-11-27T01:46:34;100733.06;;;6.26;63.81
24234;BME280;12365;43.554;1.388;2022-11-27T01:51:32;100728.56;;;6.23;63.54
24234;BME280;12365;43.554;1.388;2022-11-27T01:53:59;100733.84;;;6.25;63.34
24234;BME280;12365;43.554;1.388;2022-11-27T01:56:25;100732.19;;;6.25;63.51
24234;BME280;12365;43.554;1.388;2022-11-27T01:58:52;100729.22;;;6.21;63.75
24234;BME280;12365;43.554;1.388;2022-11-27T02:01:19;100720.28;;;6.17;63.58
24234;BME280;12365;43.554;1.388;2022-11-27T02:03:44;100720.28;;;6.17;63.25
24234;BME280;12365;43.554;1.388;2022-11-27T02:06:12;100715.75;;;6.15;63.60
24234;BME280;12365;43.554;1.388;2022-11-27T02:08:38;100712.03;;;6.11;63.29
24234;BME280;12365;43.554;1.388;2022-11-27T02:13:44;100717.47;;;6.04;63.06
24234;BME280;12365;43.554;1.388;2022-11-27T02:16:20;100723.47;;;6.03;63.70
24234;BME280;12365;43.554;1.388;2022-11-27T02:19:27;100727.97;;;6.05;63.48
24234;BME280;12365;43.554;1.388;2022-11-27T02:21:59;100729.53;;;6.03;63.17
24234;BME280;12365;43.554;1.388;2022-11-27T02:24:54;100720.06;;;6.04;63.39
24234;BME280;12365;43.554;1.388;2022-11-27T02:30:18;100716.81;;;6.06;63.16
24234;BME280;12365;43.554;1.388;2022-11-27T02:32:58;100716.03;;;6.07;63.75
24234;BME280;12365;43.554;1.388;2022-11-27T02:35:44;100720.31;;;6.07;63.72
24234;BME280;12365;43.554;1.388;2022-11-27T02:38:24;100734.72;;;6.03;63.58
24234;BME280;12365;43.554;1.388;2022-11-27T02:41:11;100726.56;;;5.99;63.01
24234;BME280;12365;43.554;1.388;2022-11-27T02:43:42;100737.56;;;5.96;62.91
24234;BME280;12365;43.554;1.388;2022-11-27T02:46:09;100731.34;;;5.94;63.62
24234;BME280;12365;43.554;1.388;2022-11-27T02:48:41;100725.13;;;5.92;62.99
24234;BME280;12365;43.554;1.388;2022-11-27T02:51:10;100725.13;;;5.92;63.38
24234;BME280;12365;43.554;1.388;2022-11-27T02:53:43;100713.84;;;5.92;63.19
24234;BME280;12365;43.554;1.388;2022-11-27T02:56:12;100708.69;;;5.92;63.03
24234;BME280;12365;43.554;1.388;2022-11-27T02:58:40;100711.16;;;5.90;63.12
24234;BME280;12365;43.554;1.388;2022-11-27T03:01:07;100705.38;;;5.82;63.41
24234;BME280;12365;43.554;1.388;2022-11-27T03:03:37;100709.59;;;5.82;63.39
24234;BME280;12365;43.554;1.388;2022-11-27T03:06:21;100701.59;;;5.79;63.38
24234;BME280;12365;43.554;1.388;2022-11-27T03:09:28;100693.97;;;5.80;63.41
24234;BME280;12365;43.554;1.388;2022-11-27T03:11:56;100693.81;;;5.79;62.89
24234;BME280;12365;43.554;1.388;2022-11-27T03:14:22;100678.19;;;5.77;63.39
24234;BME280;12365;43.554;1.388;2022-11-27T03:22:09;100680.78;;;5.77;63.24
24234;BME280;12365;43.554;1.388;2022-11-27T03:24:35;100684.03;;;5.75;63.76
24234;BME280;12365;43.554;1.388;2022-11-27T03:27:02;100687.38;;;5.74;63.62
24234;BME280;12365;43.554;1.388;2022-11-27T03:29:51;100684.28;;;5.68;63.33
24234;BME280;12365;43.554;1.388;2022-11-27T03:32:19;100677.84;;;5.62;62.82
24234;BME280;12365;43.554;1.388;2022-11-27T03:34:46;100679.16;;;5.57;62.91
24234;BME280;12365;43.554;1.388;2022-11-27T03:37:12;100670.09;;;5.52;63.47
24234;BME280;12365;43.554;1.388;2022-11-27T03:39:37;100676.81;;;5.50;63.16
24234;BME280;12365;43.554;1.388;2022-11-27T03:47:42;100669.06;;;5.50;63.49
24234;BME280;12365;43.554;1.388;2022-11-27T04:00:47;100652.66;;;5.39;62.88
24234;BME280;12365;43.554;1.388;2022-11-27T04:03:22;100646.69;;;5.40;63.63
24234;BME280;12365;43.554;1.388;2022-11-27T04:05:48;100638.13;;;5.41;63.25
24234;BME280;12365;43.554;1.388;2022-11-27T04:08:13;100640.06;;;5.44;63.65
24234;BME280;12365;43.554;1.388;2022-11-27T04:10:38;100637.63;;;5.46;63.09
24234;BME280;12365;43.554;1.388;2022-11-27T04:13:04;100630.75;;;5.46;63.04
24234;BME280;12365;43.554;1.388;2022-11-27T04:15:29;100618.72;;;5.47;63.15
24234;BME280;12365;43.554;1.388;2022-11-27T04:17:54;100629.22;;;5.48;63.37
24234;BME280;12365;43.554;1.388;2022-11-27T04:20:20;100631.66;;;5.47;62.94
24234;BME280;12365;43.554;1.388;2022-11-27T04:22:45;100631.81;;;5.48;63.31
24234;BME280;12365;43.554;1.388;2022-11-27T04:25:11;100635.28;;;5.49;63.86
24234;BME280;12365;43.554;1.388;2022-11-27T04:27:36;100632.69;;;5.49;63.43
24234;BME280;12365;43.554;1.388;2022-11-27T04:30:01;100638.78;;;5.49;63.29
24234;BME280;12365;43.554;1.388;2022-11-27T04:32:27;100639.06;;;5.52;63.61
24234;BME280;12365;43.554;1.388;2022-11-27T04:34:52;100634.88;;;5.54;63.04
24234;BME280;12365;43.554;1.388;2022-11-27T04:37:18;100637.75;;;5.57;62.91
24234;BME280;12365;43.554;1.388;2022-11-27T04:39:43;100638.75;;;5.59;63.39
24234;BME280;12365;43.554;1.388;2022-11-27T04:42:08;100619.97;;;5.62;63.71
24234;BME280;12365;43.554;1.388;2022-11-27T04:44:34;100620.91;;;5.62;63.25
24234;BME280;12365;43.554;1.388;2022-11-27T04:46:59;100620.59;;;5.70;63.25
24234;BME280;12365;43.554;1.388;2022-11-27T04:49:24;100606.88;;;5.71;63.79
24234;BME280;12365;43.554;1.388;2022-11-27T04:51:50;100609.47;;;5.71;63.73
24234;BME280;12365;43.554;1.388;2022-11-27T04:54:15;100613.09;;;5.73;64.06
24234;BME280;12365;43.554;1.388;2022-11-27T04:56:41;100620.31;;;5.77;63.93
24234;BME280;12365;43.554;1.388;2022-11-27T04:59:06;100627.41;;;5.79;63.74
24234;BME280;12365;43.554;1.388;2022-11-27T05:01:31;100627.78;;;5.84;63.58
24234;BME280;12365;43.554;1.388;2022-11-27T05:03:57;100623.63;;;5.86;63.31
24234;BME280;12365;43.554;1.388;2022-11-27T05:06:22;100626.47;;;5.89;63.72
24234;BME280;12365;43.554;1.388;2022-11-27T05:08:48;100630.88;;;5.90;63.69
24234;BME280;12365;43.554;1.388;2022-11-27T05:11:15;100631.66;;;5.89;63.53
24234;BME280;12365;43.554;1.388;2022-11-27T05:13:41;100630.75;;;5.89;63.71
24234;BME280;12365;43.554;1.388;2022-11-27T05:16:07;100621.06;;;5.86;63.93
24234;BME280;12365;43.554;1.388;2022-11-27T05:18:32;100627.91;;;5.85;63.62
24234;BME280;12365;43.554;1.388;2022-11-27T05:21:05;100620.03;;;5.84;63.88
24234;BME280;12365;43.554;1.388;2022-11-27T05:23:32;100621.84;;;5.85;63.40
24234;BME280;12365;43.554;1.388;2022-11-27T05:25:58;100612.50;;;5.87;63.65
24234;BME280;12365;43.554;1.388;2022-11-27T05:28:24;100610.94;;;5.89;63.87
24234;BME280;12365;43.554;1.388;2022-11-27T05:30:50;100615.44;;;5.92;63.16
24234;BME280;12365;43.554;1.388;2022-11-27T05:33:17;100612.25;;;5.94;64.00
24234;BME280;12365;43.554;1.388;2022-11-27T05:35:43;100599.53;;;5.97;63.58
24234;BME280;12365;43.554;1.388;2022-11-27T05:38:10;100596.16;;;5.98;63.62
24234;BME280;12365;43.554;1.388;2022-11-27T05:40:35;100602.72;;;6.05;63.53
24234;BME280;12365;43.554;1.388;2022-11-27T05:43:01;100598.47;;;6.05;63.29
24234;BME280;12365;43.554;1.388;2022-11-27T05:45:26;100602.06;;;6.07;63.90
24234;BME280;12365;43.554;1.388;2022-11-27T05:47:51;100599.72;;;6.11;63.58
24234;BME280;12365;43.554;1.388;2022-11-27T05:50:17;100603.31;;;6.13;63.82
24234;BME280;12365;43.554;1.388;2022-11-27T05:52:42;100597.38;;;6.14;63.36
24234;BME280;12365;43.554;1.388;2022-11-27T05:55:08;100591.41;;;6.15;63.68
24234;BME280;12365;43.554;1.388;2022-11-27T05:57:33;100594.22;;;6.18;63.53
24234;BME280;12365;43.554;1.388;2022-11-27T05:59:59;100590.75;;;6.17;63.49
24234;BME280;12365;43.554;1.388;2022-11-27T06:02:26;100587.13;;;6.15;64.08
24234;BME280;12365;43.554;1.388;2022-11-27T06:04:51;100579.25;;;6.14;63.62
24234;BME280;12365;43.554;1.388;2022-11-27T06:07:17;100585.19;;;6.13;64.01
24234;BME280;12365;43.554;1.388;2022-11-27T06:09:43;100584.06;;;6.09;63.74
24234;BME280;12365;43.554;1.388;2022-11-27T06:12:08;100582.38;;;6.10;63.69
24234;BME280;12365;43.554;1.388;2022-11-27T06:14:34;100578.22;;;6.12;63.79
24234;BME280;12365;43.554;1.388;2022-11-27T06:17:03;100565.13;;;6.10;63.78
24234;BME280;12365;43.554;1.388;2022-11-27T06:19:28;100557.25;;;6.08;64.25
24234;BME280;12365;43.554;1.388;2022-11-27T06:21:54;100549.34;;;6.07;63.99
24234;BME280;12365;43.554;1.388;2022-11-27T06:24:20;100545.50;;;6.02;64.25
24234;BME280;12365;43.554;1.388;2022-11-27T06:26:46;100541.00;;;5.99;64.27
24234;BME280;12365;43.554;1.388;2022-11-27T06:29:11;100532.19;;;5.97;64.13
24234;BME280;12365;43.554;1.388;2022-11-27T06:31:37;100541.34;;;6.04;63.89
24234;BME280;12365;43.554;1.388;2022-11-27T06:34:03;100539.13;;;6.08;63.75
24234;BME280;12365;43.554;1.388;2022-11-27T06:36:32;100539.22;;;6.10;63.82
24234;BME280;12365;43.554;1.388;2022-11-27T06:38:58;100533.38;;;6.13;64.10
24234;BME280;12365;43.554;1.388;2022-11-27T06:41:24;100538.56;;;6.13;64.25
24234;BME280;12365;43.554;1.388;2022-11-27T06:43:51;100537.81;;;6.14;64.27
24234;BME280;12365;43.554;1.388;2022-11-27T06:46:18;100545.00;;;6.18;64.40
24234;BME280;12365;43.554;1.388;2022-11-27T06:48:45;100552.00;;;6.19;63.71
24234;BME280;12365;43.554;1.388;2022-11-27T06:51:14;100549.66;;;6.22;63.92
24234;BME280;12365;43.554;1.388;2022-11-27T06:53:40;100547.97;;;6.22;63.88
24234;BME280;12365;43.554;1.388;2022-11-27T06:56:20;100551.94;;;6.29;64.10
24234;BME280;12365;43.554;1.388;2022-11-27T06:58:48;100556.59;;;6.33;64.36
24234;BME280;12365;43.554;1.388;2022-11-27T07:01:15;100559.41;;;6.36;64.01
24234;BME280;12365;43.554;1.388;2022-11-27T07:03:41;100552.75;;;6.40;64.32
24234;BME280;12365;43.554;1.388;2022-11-27T07:06:08;100558.06;;;6.41;64.12
24234;BME280;12365;43.554;1.388;2022-11-27T07:08:34;100558.06;;;6.41;63.91
24234;BME280;12365;43.554;1.388;2022-11-27T07:11:01;100560.09;;;6.45;63.74
24234;BME280;12365;43.554;1.388;2022-11-27T07:13:30;100552.00;;;6.53;64.04
24234;BME280;12365;43.554;1.388;2022-11-27T07:15:59;100562.88;;;6.70;64.25
24234;BME280;12365;43.554;1.388;2022-11-27T07:18:26;100562.69;;;6.79;64.18
24234;BME280;12365;43.554;1.388;2022-11-27T07:20:52;100565.84;;;6.87;63.96
24234;BME280;12365;43.554;1.388;2022-11-27T07:23:18;100563.81;;;6.94;64.10
24234;BME280;12365;43.554;1.388;2022-11-27T07:25:43;100558.63;;;7.06;63.85
24234;BME280;12365;43.554;1.388;2022-11-27T07:28:09;100570.72;;;7.18;64.15
24234;BME280;12365;43.554;1.388;2022-11-27T07:30:34;100564.31;;;7.24;64.03
24234;BME280;12365;43.554;1.388;2022-11-27T07:33:00;100569.47;;;7.36;64.28
24234;BME280;12365;43.554;1.388;2022-11-27T07:35:25;100562.25;;;7.44;64.11
24234;BME280;12365;43.554;1.388;2022-11-27T07:37:51;100556.16;;;7.55;63.83
24234;BME280;12365;43.554;1.388;2022-11-27T07:40:16;100559.72;;;7.69;63.87
24234;BME280;12365;43.554;1.388;2022-11-27T07:42:43;100563.34;;;7.82;63.85
24234;BME280;12365;43.554;1.388;2022-11-27T07:45:09;100557.53;;;7.98;63.93
24234;BME280;12365;43.554;1.388;2022-11-27T07:47:34;100553.53;;;8.15;63.91
24234;BME280;12365;43.554;1.388;2022-11-27T07:50:00;100560.00;;;8.34;63.66
24234;BME280;12365;43.554;1.388;2022-11-27T07:52:26;100566.59;;;8.54;63.74
24234;BME280;12365;43.554;1.388;2022-11-27T07:54:51;100569.56;;;8.72;63.80
24234;BME280;12365;43.554;1.388;2022-11-27T07:57:17;100570.47;;;8.85;63.66
24234;BME280;12365;43.554;1.388;2022-11-27T07:59:42;100566.22;;;8.99;63.58
24234;BME280;12365;43.554;1.388;2022-11-27T08:02:12;100559.09;;;9.10;63.53
24234;BME280;12365;43.554;1.388;2022-11-27T08:04:37;100553.69;;;9.20;63.54
24234;BME280;12365;43.554;1.388;2022-11-27T08:07:03;100552.63;;;9.30;63.58
24234;BME280;12365;43.554;1.388;2022-11-27T08:09:28;100553.19;;;9.39;63.27
24234;BME280;12365;43.554;1.388;2022-11-27T08:11:54;100546.09;;;9.50;63.61
24234;BME280;12365;43.554;1.388;2022-11-27T08:14:20;100551.88;;;9.59;63.38
24234;BME280;12365;43.554;1.388;2022-11-27T08:16:46;100544.53;;;9.67;63.09
24234;BME280;12365;43.554;1.388;2022-11-27T08:19:11;100542.91;;;9.82;63.29
24234;BME280;12365;43.554;1.388;2022-11-27T08:21:36;100536.56;;;9.92;62.96
24234;BME280;12365;43.554;1.388;2022-11-27T08:24:02;100542.19;;;9.98;62.78
24234;BME280;12365;43.554;1.388;2022-11-27T08:26:27;100533.03;;;10.05;62.79
24234;BME280;12365;43.554;1.388;2022-11-27T08:28:54;100543.16;;;10.13;62.84
24234;BME280;12365;43.554;1.388;2022-11-27T08:31:20;100542.63;;;10.19;62.89
24234;BME280;12365;43.554;1.388;2022-11-27T08:33:45;100535.25;;;10.27;62.86
24234;BME280;12365;43.554;1.388;2022-11-27T08:36:11;100548.09;;;10.37;62.78
24234;BME280;12365;43.554;1.388;2022-11-27T08:38:37;100548.56;;;10.45;62.56
24234;BME280;12365;43.554;1.388;2022-11-27T08:41:04;100549.00;;;10.52;62.88
24234;BME280;12365;43.554;1.388;2022-11-27T08:43:30;100547.69;;;10.59;62.76
24234;BME280;12365;43.554;1.388;2022-11-27T08:45:56;100548.75;;;10.62;62.50
24234;BME280;12365;43.554;1.388;2022-11-27T08:48:22;100553.44;;;10.68;62.40
24234;BME280;12365;43.554;1.388;2022-11-27T08:50:48;100561.66;;;10.74;62.37
24234;BME280;12365;43.554;1.388;2022-11-27T08:53:14;100565.44;;;10.79;62.57
24234;BME280;12365;43.554;1.388;2022-11-27T08:55:40;100573.56;;;10.84;62.30
24234;BME280;12365;43.554;1.388;2022-11-27T08:58:05;100564.19;;;10.88;62.22
24234;BME280;12365;43.554;1.388;2022-11-27T09:00:32;100564.47;;;10.92;62.45
24234;BME280;12365;43.554;1.388;2022-11-27T09:02:58;100560.50;;;10.99;62.07
24234;BME280;12365;43.554;1.388;2022-11-27T09:05:24;100553.91;;;11.05;62.16
24234;BME280;12365;43.554;1.388;2022-11-27T09:07:50;100547.78;;;11.20;62.08
24234;BME280;12365;43.554;1.388;2022-11-27T09:10:15;100542.34;;;11.32;61.91
24234;BME280;12365;43.554;1.388;2022-11-27T09:12:40;100546.31;;;11.40;61.84
24234;BME280;12365;43.554;1.388;2022-11-27T09:15:06;100533.69;;;11.47;61.79
24234;BME280;12365;43.554;1.388;2022-11-27T09:17:32;100537.06;;;11.61;62.05
24234;BME280;12365;43.554;1.388;2022-11-27T09:19:57;100535.03;;;11.72;61.72
24234;BME280;12365;43.554;1.388;2022-11-27T09:22:23;100531.22;;;11.82;61.46
24234;BME280;12365;43.554;1.388;2022-11-27T09:24:48;100529.94;;;11.90;61.52
24234;BME280;12365;43.554;1.388;2022-11-27T09:27:13;100529.72;;;12.02;61.56
24234;BME280;12365;43.554;1.388;2022-11-27T09:29:39;100527.63;;;12.11;61.40
24234;BME280;12365;43.554;1.388;2022-11-27T09:32:04;100520.44;;;12.23;61.19
24234;BME280;12365;43.554;1.388;2022-11-27T09:34:30;100512.91;;;12.29;61.11
24234;BME280;12365;43.554;1.388;2022-11-27T09:36:55;100520.50;;;12.41;61.08
24234;BME280;12365;43.554;1.388;2022-11-27T09:39:20;100523.09;;;12.57;60.89
24234;BME280;12365;43.554;1.388;2022-11-27T09:41:55;100520.97;;;12.67;60.84
24234;BME280;12365;43.554;1.388;2022-11-27T09:44:42;100505.53;;;12.73;60.81
24234;BME280;12365;43.554;1.388;2022-11-27T09:47:34;100518.59;;;12.89;60.71
24234;BME280;12365;43.554;1.388;2022-11-27T09:50:12;100523.78;;;13.06;60.55
24234;BME280;12365;43.554;1.388;2022-11-27T09:52:41;100514.91;;;13.20;60.34
24234;BME280;12365;43.554;1.388;2022-11-27T09:55:19;100511.28;;;13.34;60.16
24234;BME280;12365;43.554;1.388;2022-11-27T09:57:52;100506.31;;;13.40;60.05
24234;BME280;12365;43.554;1.388;2022-11-27T10:00:20;100521.38;;;13.44;59.89
24234;BME280;12365;43.554;1.388;2022-11-27T10:02:46;100521.50;;;13.48;59.72
24234;BME280;12365;43.554;1.388;2022-11-27T10:05:28;100521.56;;;13.49;59.88
24234;BME280;12365;43.554;1.388;2022-11-27T10:18:54;100499.94;;;13.91;59.30
24234;BME280;12365;43.554;1.388;2022-11-27T10:21:33;100504.81;;;14.02;59.21
24234;BME280;12365;43.554;1.388;2022-11-27T10:24:09;100491.25;;;14.11;58.96
24234;BME280;12365;43.554;1.388;2022-11-27T10:26:45;100502.56;;;14.10;58.96
24234;BME280;12365;43.554;1.388;2022-11-27T10:32:10;100491.91;;;14.07;58.75
24234;BME280;12365;43.554;1.388;2022-11-27T10:34:42;100488.31;;;14.05;58.87
24234;BME280;12365;43.554;1.388;2022-11-27T10:37:26;100483.25;;;14.08;58.89
24234;BME280;12365;43.554;1.388;2022-11-27T10:39:55;100488.63;;;14.11;58.81
24234;BME280;12365;43.554;1.388;2022-11-27T10:42:24;100492.34;;;14.16;58.84
24234;BME280;12365;43.554;1.388;2022-11-27T10:45:00;100473.13;;;14.17;58.83
24234;BME280;12365;43.554;1.388;2022-11-27T10:47:27;100459.25;;;14.20;58.80
24234;BME280;12365;43.554;1.388;2022-11-27T10:49:53;100461.25;;;14.25;58.60
24234;BME280;12365;43.554;1.388;2022-11-27T10:52:19;100446.41;;;14.26;58.73
24234;BME280;12365;43.554;1.388;2022-11-27T10:54:50;100458.00;;;14.31;58.58
24234;BME280;12365;43.554;1.388;2022-11-27T10:58:04;100454.88;;;14.40;58.52
24234;BME280;12365;43.554;1.388;2022-11-27T11:00:32;100451.69;;;14.47;58.50
24234;BME280;12365;43.554;1.388;2022-11-27T11:03:02;100428.34;;;14.53;58.38
24234;BME280;12365;43.554;1.388;2022-11-27T11:05:29;100435.59;;;14.59;58.31
24234;BME280;12365;43.554;1.388;2022-11-27T11:10:35;100421.50;;;14.78;58.20
24234;BME280;12365;43.554;1.388;2022-11-27T11:13:11;100423.56;;;14.85;57.90
24234;BME280;12365;43.554;1.388;2022-11-27T11:16:02;100421.94;;;14.88;58.01
24234;BME280;12365;43.554;1.388;2022-11-27T11:20:58;100405.03;;;14.82;57.93
24234;BME280;12365;43.554;1.388;2022-11-27T11:23:35;100409.63;;;14.87;57.82
24234;BME280;12365;43.554;1.388;2022-11-27T11:26:11;100406.47;;;14.96;57.68
24234;BME280;12365;43.554;1.388;2022-11-27T11:28:49;100393.19;;;14.91;57.55
24234;BME280;12365;43.554;1.388;2022-11-27T11:31:18;100395.03;;;14.94;57.59
24234;BME280;12365;43.554;1.388;2022-11-27T11:33:59;100396.16;;;15.01;57.49
24234;BME280;12365;43.554;1.388;2022-11-27T11:36:26;100387.59;;;15.06;57.53
24234;BME280;12365;43.554;1.388;2022-11-27T11:38:52;100376.41;;;15.10;57.31
24234;BME280;12365;43.554;1.388;2022-11-27T11:41:18;100360.81;;;15.15;57.29
24234;BME280;12365;43.554;1.388;2022-11-27T11:43:59;100367.91;;;15.17;57.31
24234;BME280;12365;43.554;1.388;2022-11-27T11:46:28;100362.78;;;15.21;57.07
24234;BME280;12365;43.554;1.388;2022-11-27T11:49:16;100355.00;;;15.24;57.17
24234;BME280;12365;43.554;1.388;2022-11-27T12:00:07;100349.91;;;15.28;57.12
24234;BME280;12365;43.554;1.388;2022-11-27T12:11:14;100330.81;;;15.32;56.80
24234;BME280;12365;43.554;1.388;2022-11-27T12:16:20;100330.13;;;15.38;56.77
24234;BME280;12365;43.554;1.388;2022-11-27T12:30:22;100309.44;;;15.47;56.56
24234;BME280;12365;43.554;1.388;2022-11-27T12:44:01;100287.47;;;15.95;56.30
24234;BME280;12365;43.554;1.388;2022-11-27T12:46:59;100286.94;;;16.05;56.13
24234;BME280;12365;43.554;1.388;2022-11-27T12:49:30;100284.44;;;16.08;55.94
24234;BME280;12365;43.554;1.388;2022-11-27T12:52:23;100289.00;;;16.14;56.00
24234;BME280;12365;43.554;1.388;2022-11-27T12:55:04;100282.88;;;16.15;55.89
24234;BME280;12365;43.554;1.388;2022-11-27T12:57:50;100275.69;;;16.09;55.99
24234;BME280;12365;43.554;1.388;2022-11-27T13:00:20;100270.16;;;16.01;55.85
24234;BME280;12365;43.554;1.388;2022-11-27T13:03:03;100262.88;;;15.94;55.85
24234;BME280;12365;43.554;1.388;2022-11-27T13:05:42;100267.00;;;15.86;56.08
24234;BME280;12365;43.554;1.388;2022-11-27T13:09:05;100265.97;;;15.81;56.17
24234;BME280;12365;43.554;1.388;2022-11-27T13:11:08;100252.69;;;15.78;56.05
24234;BME280;12365;43.554;1.388;2022-11-27T13:16:03;100242.00;;;15.73;56.23
24234;BME280;12365;43.554;1.388;2022-11-27T13:18:45;100246.47;;;15.76;56.03
24234;BME280;12365;43.554;1.388;2022-11-27T13:21:26;100235.88;;;15.73;56.07
24234;BME280;12365;43.554;1.388;2022-11-27T13:23:52;100223.34;;;15.67;56.15
24234;BME280;12365;43.554;1.388;2022-11-27T13:26:24;100225.13;;;15.68;56.17
24234;BME280;12365;43.554;1.388;2022-11-27T13:29:01;100226.88;;;15.68;56.21
24234;BME280;12365;43.554;1.388;2022-11-27T13:31:30;100223.31;;;15.66;56.22
24234;BME280;12365;43.554;1.388;2022-11-27T13:34:02;100220.66;;;15.66;56.12
24234;BME280;12365;43.554;1.388;2022-11-27T13:36:40;100210.16;;;15.66;56.29
24234;BME280;12365;43.554;1.388;2022-11-27T13:39:21;100207.50;;;15.66;56.24
24234;BME280;12365;43.554;1.388;2022-11-27T13:41:47;100208.31;;;15.63;56.31
24234;BME280;12365;43.554;1.388;2022-11-27T13:44:24;100210.78;;;15.58;56.27
24234;BME280;12365;43.554;1.388;2022-11-27T13:46:53;100203.72;;;15.57;56.48
24234;BME280;12365;43.554;1.388;2022-11-27T13:49:30;100207.28;;;15.59;56.27
24234;BME280;12365;43.554;1.388;2022-11-27T13:54:33;100209.78;;;15.55;56.48
24234;BME280;12365;43.554;1.388;2022-11-27T13:57:14;100195.69;;;15.53;56.32
24234;BME280;12365;43.554;1.388;2022-11-27T13:59:40;100186.91;;;15.52;56.45
24234;BME280;12365;43.554;1.388;2022-11-27T14:02:06;100192.88;;;15.48;56.45
24234;BME280;12365;43.554;1.388;2022-11-27T14:04:33;100189.31;;;15.46;56.51
24234;BME280;12365;43.554;1.388;2022-11-27T14:07:07;100175.09;;;15.41;56.50
24234;BME280;12365;43.554;1.388;2022-11-27T14:09:37;100180.34;;;15.41;56.73
24234;BME280;12365;43.554;1.388;2022-11-27T14:12:33;100172.47;;;15.41;56.54
24234;BME280;12365;43.554;1.388;2022-11-27T14:15:07;100165.38;;;15.38;56.75
24234;BME280;12365;43.554;1.388;2022-11-27T14:17:41;100153.88;;;15.35;56.77
24234;BME280;12365;43.554;1.388;2022-11-27T14:25:25;100150.19;;;15.30;56.97
24234;BME280;12365;43.554;1.388;2022-11-27T14:28:23;100146.59;;;15.28;56.94
24234;BME280;12365;43.554;1.388;2022-11-27T14:30:55;100148.19;;;15.23;56.98
24234;BME280;12365;43.554;1.388;2022-11-27T14:33:29;100142.84;;;15.21;57.04
24234;BME280;12365;43.554;1.388;2022-11-27T14:36:05;100141.91;;;15.19;57.02
24234;BME280;12365;43.554;1.388;2022-11-27T14:38:33;100141.88;;;15.17;57.17
24234;BME280;12365;43.554;1.388;2022-11-27T14:41:16;100133.03;;;15.15;57.08
24234;BME280;12365;43.554;1.388;2022-11-27T14:43:41;100130.41;;;15.15;56.97
24234;BME280;12365;43.554;1.388;2022-11-27T14:46:14;100116.31;;;15.13;57.14
24234;BME280;12365;43.554;1.388;2022-11-27T14:48:47;100125.03;;;15.12;57.15